Time;durP1;ratioP1;P1;durP2;ratioP2;P2;SDS_P1;SDS_P2;PMS_P1;PMS_P2;Temp;Humidity;BMP_temperature;BMP_pressure;BME280_temperature;BME280_humidity;BME280_pressure;Samples;Min_cycle;Max_cycle;Signal;HPM_P1;HPM_P2
2022/08/02 00:01:25;;;;;;;5.63;2.50;;;20.30;73.30;;;;;;5092075;28;20494;-63
2022/08/02 00:03:50;;;;;;;9.48;2.33;;;20.30;73.40;;;;;;5113304;28;20481;-63
2022/08/02 00:06:16;;;;;;;9.35;2.65;;;20.30;73.40;;;;;;5099165;28;20036;-63
2022/08/02 00:08:48;;;;;;;8.30;2.75;;;20.20;73.30;;;;;;5104505;28;20036;-63
2022/08/02 00:11:14;;;;;;;10.70;2.97;;;20.20;73.30;;;;;;5092891;28;20067;-63
2022/08/02 00:13:39;;;;;;;7.13;2.60;;;20.20;73.40;;;;;;5094560;28;20051;-63
2022/08/02 00:16:05;;;;;;;6.82;2.65;;;20.20;73.40;;;;;;5096812;28;20058;-63
2022/08/02 00:18:31;;;;;;;9.77;2.80;;;20.10;73.50;;;;;;5092983;28;20031;-63
2022/08/02 00:20:56;;;;;;;8.98;2.75;;;20.10;73.60;;;;;;5096689;28;20529;-63
2022/08/02 00:23:22;;;;;;;9.10;2.83;;;20.10;73.60;;;;;;5100855;28;20476;-63
2022/08/02 00:25:48;;;;;;;9.88;3.20;;;20.10;73.80;;;;;;5091836;28;20028;-63
2022/08/02 00:28:13;;;;;;;9.68;2.67;;;20.00;73.80;;;;;;5094358;28;20059;-63
2022/08/02 00:30:39;;;;;;;7.68;2.92;;;20.00;73.90;;;;;;5111842;28;20043;-63
2022/08/02 00:33:07;;;;;;;8.60;2.95;;;20.00;74.00;;;;;;5105990;28;20028;-63
2022/08/02 00:35:33;;;;;;;11.73;2.70;;;20.00;74.10;;;;;;5091329;28;20506;-63
2022/08/02 00:38:04;;;;;;;13.60;4.15;;;20.00;74.20;;;;;;5092277;28;20577;-63
2022/08/02 00:40:30;;;;;;;8.98;2.78;;;19.90;74.30;;;;;;5110724;28;20024;-63
2022/08/02 00:43:06;;;;;;;8.45;2.45;;;19.90;74.40;;;;;;5099671;28;20036;-63
2022/08/02 00:45:36;;;;;;;14.02;2.63;;;19.90;74.40;;;;;;5099438;28;20106;-63
2022/08/02 00:48:04;;;;;;;13.77;2.90;;;19.80;74.50;;;;;;5112682;28;20024;-63
2022/08/02 00:50:31;;;;;;;8.88;2.50;;;19.80;74.60;;;;;;5098051;28;20040;-63
2022/08/02 00:52:57;;;;;;;8.07;2.75;;;19.80;74.70;;;;;;5100929;28;20063;-63
2022/08/02 00:55:23;;;;;;;10.35;2.88;;;19.80;74.70;;;;;;5090301;28;20052;-63
2022/08/02 00:57:49;;;;;;;15.55;2.83;;;19.70;75.20;;;;;;5102581;28;20038;-63
2022/08/02 01:00:15;;;;;;;9.40;2.92;;;19.70;74.70;;;;;;5115618;28;20525;-63
2022/08/02 01:02:47;;;;;;;10.35;2.58;;;19.70;74.80;;;;;;5102484;28;20036;-63
2022/08/02 01:05:13;;;;;;;8.05;2.70;;;19.60;74.70;;;;;;5116273;28;20027;-63
2022/08/02 01:07:39;;;;;;;8.27;2.60;;;19.60;74.80;;;;;;5102409;28;20035;-63
2022/08/02 01:10:06;;;;;;;10.15;2.75;;;19.60;74.80;;;;;;5114964;28;20035;-63
2022/08/02 01:12:31;;;;;;;8.38;2.75;;;19.60;75.00;;;;;;5111431;28;20114;-63
2022/08/02 01:15:08;;;;;;;9.25;2.80;;;19.50;74.90;;;;;;5096933;28;20124;-63
2022/08/02 01:17:43;;;;;;;4.88;2.70;;;19.50;74.90;;;;;;5102710;28;20115;-62
2022/08/02 01:20:47;;;;;;;11.68;2.90;;;19.40;74.90;;;;;;5100017;28;20368;-63
2022/08/02 01:23:43;;;;;;;5.95;1.90;;;19.40;75.10;;;;;;5068964;28;20032;-63
2022/08/02 01:26:47;;;;;;;13.48;2.70;;;19.40;75.30;;;;;;5106568;28;20483;-63
2022/08/02 01:29:35;;;;;;;9.85;2.65;;;19.30;75.40;;;;;;5096575;28;20111;-63
2022/08/02 01:32:35;;;;;;;17.98;2.72;;;19.30;75.60;;;;;;5104145;28;20042;-63
2022/08/02 01:35:22;;;;;;;7.78;2.45;;;19.20;75.80;;;;;;5088577;28;20107;-63
2022/08/02 01:37:53;;;;;;;5.60;2.60;;;19.10;75.80;;;;;;5096056;28;20616;-62
2022/08/02 01:40:32;;;;;;;10.23;2.58;;;19.20;75.90;;;;;;5095330;28;20070;-63
2022/08/02 01:43:00;;;;;;;8.65;2.22;;;19.10;76.10;;;;;;5097503;28;20429;-63
2022/08/02 01:45:36;;;;;;;8.90;2.60;;;19.10;76.10;;;;;;5115372;28;20042;-63
2022/08/02 01:48:04;;;;;;;8.50;2.88;;;19.00;76.10;;;;;;5115004;28;20036;-63
2022/08/02 01:50:33;;;;;;;5.57;2.22;;;19.00;76.20;;;;;;5115411;28;20126;-62
2022/08/02 01:53:05;;;;;;;7.93;2.40;;;19.00;76.30;;;;;;5113468;28;20031;-63
2022/08/02 01:55:38;;;;;;;8.60;2.95;;;19.00;76.30;;;;;;5097352;28;20543;-63
2022/08/02 01:58:06;;;;;;;12.23;2.28;;;18.90;76.40;;;;;;5108192;28;20028;-63
2022/08/02 02:00:37;;;;;;;13.85;2.63;;;18.90;76.50;;;;;;5107642;28;20040;-63
2022/08/02 02:03:06;;;;;;;10.38;2.60;;;18.90;76.60;;;;;;5108418;28;20035;-63
2022/08/02 02:05:35;;;;;;;7.03;2.20;;;18.90;76.60;;;;;;5114622;28;20060;-63
2022/08/02 02:08:04;;;;;;;10.32;2.53;;;18.80;76.80;;;;;;5111675;28;20032;-63
2022/08/02 02:10:33;;;;;;;11.00;2.70;;;18.80;76.80;;;;;;5101636;28;20119;-63
2022/08/02 02:13:03;;;;;;;10.75;2.33;;;18.80;76.80;;;;;;5099870;28;20505;-63
2022/08/02 02:15:30;;;;;;;5.50;2.17;;;18.70;76.80;;;;;;5095225;28;20051;-62
2022/08/02 02:17:58;;;;;;;6.72;2.10;;;18.80;76.80;;;;;;5108743;28;20036;-63
2022/08/02 02:20:24;;;;;;;4.47;1.95;;;18.70;76.90;;;;;;5094867;28;20029;-62
2022/08/02 02:22:50;;;;;;;9.65;2.15;;;18.70;77.10;;;;;;5108268;28;20035;-62
2022/08/02 02:25:19;;;;;;;6.47;2.13;;;18.70;77.40;;;;;;5105067;28;20042;-62
2022/08/02 02:28:03;;;;;;;4.18;1.67;;;18.60;77.40;;;;;;5110969;28;20140;-63
2022/08/02 02:30:31;;;;;;;7.45;2.15;;;18.60;77.40;;;;;;5094541;28;20048;-63
2022/08/02 02:33:00;;;;;;;5.88;2.25;;;18.60;77.70;;;;;;5099670;28;20034;-62
2022/08/02 02:35:32;;;;;;;9.52;2.38;;;18.60;77.60;;;;;;5108945;28;20028;-63
2022/08/02 02:38:00;;;;;;;8.20;2.05;;;18.50;77.50;;;;;;5094269;28;20034;-63
2022/08/02 02:40:28;;;;;;;11.40;2.42;;;18.50;78.10;;;;;;5101784;28;20555;-63
2022/08/02 02:42:57;;;;;;;6.47;2.35;;;18.50;77.60;;;;;;5113078;28;20429;-62
2022/08/02 02:45:23;;;;;;;7.82;2.53;;;18.40;77.70;;;;;;5113713;28;20028;-62
2022/08/02 02:47:51;;;;;;;7.45;2.53;;;18.40;77.90;;;;;;5113429;28;20463;-63
2022/08/02 02:50:17;;;;;;;6.22;2.38;;;18.40;78.00;;;;;;5114178;28;20032;-63
2022/08/02 02:52:44;;;;;;;6.95;2.20;;;18.40;78.20;;;;;;5100840;28;20028;-63
2022/08/02 02:55:11;;;;;;;6.45;2.50;;;18.30;78.30;;;;;;5103804;28;20083;-62
2022/08/02 02:57:38;;;;;;;11.25;2.78;;;18.30;78.50;;;;;;5111667;28;20062;-63
2022/08/02 03:00:14;;;;;;;10.55;2.58;;;18.30;78.40;;;;;;5113314;28;20042;-63
2022/08/02 03:02:42;;;;;;;9.32;2.58;;;18.20;78.40;;;;;;5099594;28;20030;-63
2022/08/02 03:05:10;;;;;;;10.68;2.60;;;18.20;78.50;;;;;;5104952;28;20403;-63
2022/08/02 03:07:37;;;;;;;5.38;2.10;;;18.20;78.70;;;;;;5101992;28;20528;-63
2022/08/02 03:10:05;;;;;;;11.25;2.13;;;18.20;78.80;;;;;;5110697;28;20141;-63
2022/08/02 03:12:32;;;;;;;12.45;2.60;;;18.10;78.80;;;;;;5107653;28;20039;-63
2022/08/02 03:15:03;;;;;;;9.80;2.63;;;18.10;79.00;;;;;;5106056;28;20032;-63
2022/08/02 03:17:44;;;;;;;12.15;3.33;;;18.20;79.10;;;;;;5099195;28;20028;-62
2022/08/02 03:20:17;;;;;;;10.02;2.53;;;18.10;79.10;;;;;;5100676;28;20071;-63
2022/08/02 03:22:44;;;;;;;12.93;2.97;;;18.10;79.30;;;;;;5102128;28;20084;-63
2022/08/02 03:25:11;;;;;;;11.73;2.53;;;18.10;79.50;;;;;;5112249;28;20028;-63
2022/08/02 03:27:37;;;;;;;13.85;2.60;;;18.10;79.50;;;;;;5110145;28;20075;-63
2022/08/02 03:30:06;;;;;;;8.30;2.63;;;18.00;79.40;;;;;;5110818;28;20401;-63
2022/08/02 03:32:36;;;;;;;8.00;2.42;;;18.00;79.50;;;;;;5112955;28;20039;-63
2022/08/02 03:35:04;;;;;;;8.15;2.90;;;18.00;79.50;;;;;;5109834;28;20073;-63
2022/08/02 03:37:31;;;;;;;6.40;2.50;;;18.00;79.60;;;;;;5100975;28;20474;-63
2022/08/02 03:39:57;;;;;;;11.70;3.40;;;18.00;79.70;;;;;;5111882;28;20038;-63
2022/08/02 03:42:25;;;;;;;8.77;2.80;;;18.00;79.80;;;;;;5109078;28;20483;-63
2022/08/02 03:44:52;;;;;;;15.43;3.13;;;17.90;79.80;;;;;;5107825;28;20035;-63
2022/08/02 03:47:20;;;;;;;7.97;2.75;;;17.90;79.90;;;;;;5108646;28;20471;-62
2022/08/02 03:49:46;;;;;;;14.90;3.10;;;17.90;80.00;;;;;;5110563;28;20114;-63
2022/08/02 03:52:13;;;;;;;9.80;2.58;;;17.90;80.00;;;;;;5110550;28;20062;-63
2022/08/02 03:54:39;;;;;;;11.10;3.05;;;17.90;80.20;;;;;;5112699;28;20057;-62
2022/08/02 03:57:06;;;;;;;9.70;2.92;;;17.80;80.10;;;;;;5108337;28;20027;-63
2022/08/02 03:59:45;;;;;;;11.45;2.85;;;17.80;80.30;;;;;;5112287;28;20027;-63
2022/08/02 04:02:12;;;;;;;11.07;2.97;;;17.80;80.30;;;;;;5107890;28;20114;-62
2022/08/02 04:04:39;;;;;;;10.30;3.70;;;17.80;81.00;;;;;;5106962;28;20474;-63
2022/08/02 04:07:05;;;;;;;12.70;3.33;;;17.80;80.60;;;;;;5112251;28;20035;-62
2022/08/02 04:09:31;;;;;;;16.17;3.45;;;17.70;80.60;;;;;;5112300;28;20122;-63
2022/08/02 04:11:56;;;;;;;11.65;3.13;;;17.70;80.60;;;;;;5112755;28;20123;-63
2022/08/02 04:14:23;;;;;;;13.68;3.05;;;17.70;80.70;;;;;;5103414;27;20110;-62
2022/08/02 04:16:59;;;;;;;14.60;2.83;;;17.70;80.80;;;;;;5112222;28;20039;-63
2022/08/02 04:19:27;;;;;;;7.43;2.50;;;17.70;80.90;;;;;;5100848;28;20043;-62
2022/08/02 04:21:54;;;;;;;11.00;2.78;;;17.70;80.90;;;;;;5111226;28;20118;-63
2022/08/02 04:24:25;;;;;;;10.68;2.95;;;17.60;81.60;;;;;;5104480;28;20437;-62
2022/08/02 04:26:54;;;;;;;10.88;3.22;;;17.60;81.00;;;;;;5102958;28;20054;-62
2022/08/02 04:29:21;;;;;;;8.07;2.50;;;17.60;81.10;;;;;;5096242;28;20028;-62
2022/08/02 04:31:47;;;;;;;14.07;2.78;;;17.60;81.30;;;;;;5112660;28;20051;-62
2022/08/02 04:34:13;;;;;;;10.98;3.08;;;17.60;81.40;;;;;;5108346;28;20088;-62
2022/08/02 04:36:39;;;;;;;12.55;3.08;;;17.60;82.00;;;;;;5093021;28;20039;-63
2022/08/02 04:39:05;;;;;;;10.05;2.90;;;17.60;81.40;;;;;;5092612;28;20012;-62
2022/08/02 04:41:43;;;;;;;15.13;3.30;;;17.60;81.40;;;;;;5103686;28;20032;-63
2022/08/02 04:44:08;;;;;;;11.30;3.10;;;17.60;81.60;;;;;;5092530;28;20490;-63
2022/08/02 04:46:36;;;;;;;17.75;3.40;;;17.50;81.70;;;;;;5110236;28;20095;-62
2022/08/02 04:49:02;;;;;;;12.45;3.17;;;17.60;81.80;;;;;;5111317;28;20400;-62
2022/08/02 04:51:27;;;;;;;9.13;2.78;;;17.60;81.80;;;;;;5106695;28;20059;-63
2022/08/02 04:53:56;;;;;;;8.10;3.08;;;17.60;81.80;;;;;;5102910;28;20051;-62
2022/08/02 04:56:21;;;;;;;15.38;3.45;;;17.60;81.50;;;;;;5106545;28;20032;-62
2022/08/02 04:58:47;;;;;;;10.15;3.15;;;17.50;81.30;;;;;;5102445;28;20030;-62
2022/08/02 05:01:13;;;;;;;8.50;3.28;;;17.50;81.20;;;;;;5094350;28;20031;-63
2022/08/02 05:03:38;;;;;;;8.40;2.78;;;17.50;81.30;;;;;;5101982;28;20133;-63
2022/08/02 05:06:04;;;;;;;8.65;3.63;;;17.50;81.50;;;;;;5098384;28;20031;-63
2022/08/02 05:08:32;;;;;;;10.52;3.35;;;17.50;81.80;;;;;;5111859;28;20420;-62
2022/08/02 05:10:58;;;;;;;18.85;3.63;;;17.50;82.10;;;;;;5111164;28;20470;-62
2022/08/02 05:13:24;;;;;;;7.00;2.97;;;17.50;82.30;;;;;;5111446;28;20081;-62
2022/08/02 05:15:50;;;;;;;10.80;3.67;;;17.50;82.50;;;;;;5095807;28;20085;-62
2022/08/02 05:18:16;;;;;;;15.38;3.08;;;17.50;82.50;;;;;;5102604;28;20032;-62
2022/08/02 05:20:42;;;;;;;9.55;3.25;;;17.50;82.90;;;;;;5109684;28;20028;-62
2022/08/02 05:23:10;;;;;;;9.18;3.67;;;17.50;83.10;;;;;;5111297;28;20015;-63
2022/08/02 05:25:36;;;;;;;12.20;3.17;;;17.60;83.40;;;;;;5099779;28;20456;-64
2022/08/02 05:28:02;;;;;;;8.38;3.58;;;17.60;83.70;;;;;;5109912;28;20241;-64
2022/08/02 05:30:27;;;;;;;8.20;3.30;;;17.50;83.80;;;;;;5108724;28;20059;-62
2022/08/02 05:32:53;;;;;;;11.10;3.50;;;17.60;84.70;;;;;;5111074;28;20035;-62
2022/08/02 05:35:21;;;;;;;10.30;3.60;;;17.60;84.10;;;;;;5110574;28;20027;-62
2022/08/02 05:37:47;;;;;;;12.43;3.22;;;17.60;83.70;;;;;;5110748;28;20108;-63
2022/08/02 05:40:14;;;;;;;7.75;3.15;;;17.60;83.50;;;;;;5110475;28;20019;-63
2022/08/02 05:42:43;;;;;;;7.43;2.70;;;17.60;83.80;;;;;;5110384;28;20069;-62
2022/08/02 05:45:09;;;;;;;14.27;4.53;;;17.70;83.90;;;;;;5109333;28;20080;-62
2022/08/02 05:47:35;;;;;;;7.80;3.10;;;17.70;84.30;;;;;;5115404;28;20432;-62
2022/08/02 05:50:01;;;;;;;12.32;3.42;;;17.70;84.40;;;;;;5111489;28;20059;-62
2022/08/02 05:52:35;;;;;;;13.45;3.58;;;17.80;84.80;;;;;;5114338;28;20067;-63
2022/08/02 05:55:01;;;;;;;16.55;4.38;;;17.80;84.90;;;;;;5113989;28;20028;-64
2022/08/02 05:57:50;;;;;;;11.23;2.47;;;17.80;84.50;;;;;;5113579;28;20024;-64
2022/08/02 06:00:17;;;;;;;9.00;2.90;;;17.90;84.00;;;;;;5091268;28;20039;-64
2022/08/02 06:02:42;;;;;;;12.77;3.47;;;17.90;83.30;;;;;;5112639;28;20016;-64
2022/08/02 06:05:14;;;;;;;12.70;3.10;;;18.00;83.20;;;;;;5114824;28;20103;-64
2022/08/02 06:07:42;;;;;;;10.38;2.60;;;18.00;83.50;;;;;;5114247;28;20031;-64
2022/08/02 06:10:08;;;;;;;5.72;2.88;;;18.10;83.30;;;;;;5115153;28;20413;-64
2022/08/02 06:12:53;;;;;;;10.85;2.85;;;18.10;83.70;;;;;;5112856;28;20032;-64
2022/08/02 06:15:19;;;;;;;13.95;3.72;;;18.10;83.10;;;;;;5112993;28;20417;-63
2022/08/02 06:17:46;;;;;;;8.50;2.85;;;18.20;83.10;;;;;;5113993;28;20171;-62
2022/08/02 06:20:13;;;;;;;8.60;2.78;;;18.20;83.30;;;;;;5113350;28;20034;-62
2022/08/02 06:22:42;;;;;;;12.82;3.47;;;18.30;82.70;;;;;;5114220;28;20554;-62
2022/08/02 06:25:12;;;;;;;6.38;3.00;;;18.30;83.10;;;;;;5112835;28;20034;-63
2022/08/02 06:27:41;;;;;;;8.68;2.95;;;18.40;83.30;;;;;;5112589;28;20035;-63
2022/08/02 06:30:09;;;;;;;7.70;3.38;;;18.40;83.90;;;;;;5114056;28;20047;-64
2022/08/02 06:32:35;;;;;;;6.88;2.47;;;18.40;84.10;;;;;;5111313;28;20050;-63
2022/08/02 06:35:03;;;;;;;14.77;2.95;;;18.50;83.80;;;;;;5109124;28;20020;-63
2022/08/02 06:37:42;;;;;;;10.05;2.50;;;18.50;83.50;;;;;;5111884;28;20035;-62
2022/08/02 06:40:24;;;;;;;6.63;2.28;;;18.60;82.20;;;;;;5113840;28;20027;-62
2022/08/02 06:43:09;;;;;;;10.30;3.13;;;18.60;81.50;;;;;;5112080;28;20030;-63
2022/08/02 06:45:35;;;;;;;5.78;2.63;;;18.60;81.70;;;;;;5112755;28;20112;-63
2022/08/02 06:48:01;;;;;;;2.10;1.50;;;18.70;81.80;;;;;;5110611;28;20478;-62
2022/08/02 06:50:27;;;;;;;5.13;1.92;;;18.70;81.30;;;;;;5113781;28;20027;-62
2022/08/02 06:52:53;;;;;;;10.57;2.58;;;18.70;80.30;;;;;;5113190;28;20090;-62
2022/08/02 06:55:19;;;;;;;7.70;2.65;;;18.70;79.90;;;;;;5113045;28;20140;-62
2022/08/02 06:57:44;;;;;;;4.75;2.15;;;18.70;80.20;;;;;;5108585;28;20339;-62
2022/08/02 07:00:11;;;;;;;6.70;1.98;;;18.70;80.00;;;;;;5110511;28;20114;-63
2022/08/02 07:02:38;;;;;;;7.90;2.50;;;18.70;80.30;;;;;;5111377;28;20386;-62
2022/08/02 07:05:05;;;;;;;6.25;2.22;;;18.70;80.40;;;;;;5112234;28;20502;-62
2022/08/02 07:07:31;;;;;;;10.48;2.40;;;18.70;80.90;;;;;;5107744;27;20036;-64
2022/08/02 07:09:58;;;;;;;8.75;1.90;;;18.70;80.50;;;;;;5107050;28;20019;-63
2022/08/02 07:12:24;;;;;;;5.80;2.05;;;18.70;80.10;;;;;;5107670;28;20089;-64
2022/08/02 07:14:50;;;;;;;7.78;2.53;;;18.70;80.20;;;;;;5107888;28;20024;-63
2022/08/02 07:17:16;;;;;;;4.55;1.67;;;18.80;81.10;;;;;;5108007;28;20038;-63
2022/08/02 07:19:41;;;;;;;4.50;1.25;;;18.80;80.60;;;;;;5109747;28;20023;-62
2022/08/02 07:22:07;;;;;;;7.35;2.20;;;18.80;80.40;;;;;;5108230;28;20403;-65
2022/08/02 07:24:33;;;;;;;7.68;2.45;;;18.70;81.30;;;;;;5107905;28;20039;-63
2022/08/02 07:26:59;;;;;;;9.45;2.60;;;18.80;81.50;;;;;;5107437;28;20030;-62
2022/08/02 07:29:25;;;;;;;9.13;2.20;;;18.80;81.70;;;;;;5107397;28;20047;-63
2022/08/02 07:31:51;;;;;;;7.50;1.80;;;18.90;81.50;;;;;;5107648;28;20047;-64
2022/08/02 07:34:17;;;;;;;0.60;0.60;;;18.90;81.10;;;;;;5108958;28;20149;-62
2022/08/02 07:36:42;;;;;;;7.72;2.00;;;19.00;80.50;;;;;;5107500;28;20028;-64
2022/08/02 07:39:08;;;;;;;9.38;1.90;;;19.00;81.40;;;;;;5108489;28;20507;-64
2022/08/02 07:41:34;;;;;;;3.38;1.63;;;19.10;81.60;;;;;;5109288;28;20118;-63
2022/08/02 07:43:59;;;;;;;5.35;1.52;;;19.10;81.30;;;;;;5107878;28;20019;-63
2022/08/02 07:46:25;;;;;;;7.15;1.65;;;19.10;81.00;;;;;;5110411;28;20470;-63
2022/08/02 07:48:54;;;;;;;2.40;1.23;;;19.20;81.40;;;;;;5109446;28;20024;-63
2022/08/02 07:51:20;;;;;;;7.13;1.90;;;19.20;80.90;;;;;;5107929;28;20039;-63
2022/08/02 07:53:49;;;;;;;3.05;1.38;;;19.30;81.00;;;;;;5110389;28;20031;-63
2022/08/02 07:56:17;;;;;;;3.13;1.10;;;19.30;80.70;;;;;;5107030;28;20439;-63
2022/08/02 07:58:43;;;;;;;5.82;1.90;;;19.40;80.20;;;;;;5107909;28;20027;-63
2022/08/02 08:01:09;;;;;;;2.15;1.10;;;19.40;80.60;;;;;;5109536;28;20042;-63
2022/08/02 08:03:34;;;;;;;7.22;1.42;;;19.50;80.40;;;;;;5108849;28;20034;-63
2022/08/02 08:06:00;;;;;;;6.70;1.30;;;19.60;80.70;;;;;;5108729;28;20038;-63
2022/08/02 08:08:26;;;;;;;7.35;2.35;;;19.60;80.00;;;;;;5107021;28;20043;-63
2022/08/02 08:10:52;;;;;;;5.95;1.60;;;19.70;79.80;;;;;;5109172;28;20023;-64
2022/08/02 08:13:17;;;;;;;3.60;1.33;;;19.70;80.30;;;;;;5110732;28;20439;-63
2022/08/02 08:15:44;;;;;;;5.80;1.13;;;19.80;80.10;;;;;;5110068;28;20089;-64
2022/08/02 08:18:10;;;;;;;4.90;1.20;;;19.80;80.00;;;;;;5111040;28;20478;-65
2022/08/02 08:20:36;;;;;;;0.70;0.70;;;19.80;80.10;;;;;;5110093;28;20043;-64
2022/08/02 08:23:02;;;;;;;6.03;1.50;;;19.90;80.30;;;;;;5111467;28;20023;-64
2022/08/02 08:25:28;;;;;;;5.45;1.50;;;20.00;79.90;;;;;;5109761;28;20016;-64
2022/08/02 08:27:54;;;;;;;5.25;1.70;;;20.00;80.00;;;;;;5107878;28;20463;-63
2022/08/02 08:30:21;;;;;;;2.00;1.30;;;20.10;80.30;;;;;;5110354;28;20040;-63
2022/08/02 08:32:47;;;;;;;6.82;2.05;;;20.20;80.40;;;;;;5107441;28;20371;-64
2022/08/02 08:35:14;;;;;;;3.58;1.80;;;20.30;80.40;;;;;;5106761;28;20027;-63
2022/08/02 08:37:40;;;;;;;6.15;1.30;;;20.40;80.20;;;;;;5106820;28;20028;-63
2022/08/02 08:40:06;;;;;;;2.78;1.00;;;20.50;79.60;;;;;;5108182;28;20039;-63
2022/08/02 08:42:34;;;;;;;1.65;0.82;;;20.60;79.30;;;;;;5109645;28;20386;-63
2022/08/02 08:45:00;;;;;;;1.73;0.82;;;20.60;78.60;;;;;;5106220;28;20104;-63
2022/08/02 08:47:32;;;;;;;5.10;1.10;;;20.60;77.90;;;;;;5108127;28;20386;-64
2022/08/02 08:50:08;;;;;;;2.97;1.10;;;20.60;77.50;;;;;;5108696;28;20031;-63
2022/08/02 08:52:40;;;;;;;6.50;1.80;;;20.70;77.50;;;;;;5109035;28;20032;-63
2022/08/02 08:55:10;;;;;;;2.15;1.15;;;20.70;77.80;;;;;;5107643;28;20042;-63
2022/08/02 08:57:41;;;;;;;4.05;0.90;;;20.70;77.70;;;;;;5107986;28;20103;-63
2022/08/02 09:00:09;;;;;;;9.32;1.17;;;20.80;77.90;;;;;;5109129;28;20032;-63
2022/08/02 09:02:36;;;;;;;3.30;1.10;;;20.80;77.60;;;;;;5105724;28;20470;-63
2022/08/02 09:05:01;;;;;;;1.17;0.85;;;20.90;77.30;;;;;;5108677;28;20042;-63
2022/08/02 09:07:27;;;;;;;1.33;0.90;;;20.90;77.00;;;;;;5107140;28;20023;-64
2022/08/02 09:09:53;;;;;;;1.83;1.05;;;20.80;76.80;;;;;;5107083;28;20490;-64
2022/08/02 09:12:24;;;;;;;1.63;0.95;;;20.90;76.90;;;;;;5108297;28;20070;-64
2022/08/02 09:14:50;;;;;;;4.40;1.00;;;20.90;76.80;;;;;;5109094;28;20027;-63
2022/08/02 09:17:20;;;;;;;2.65;0.98;;;20.90;76.90;;;;;;5107937;28;20027;-63
2022/08/02 09:19:46;;;;;;;1.05;0.93;;;20.90;76.70;;;;;;5112001;28;20032;-63
2022/08/02 09:22:13;;;;;;;6.18;1.08;;;21.10;76.60;;;;;;5102290;28;20091;-63
2022/08/02 09:24:44;;;;;;;6.38;1.60;;;21.10;76.30;;;;;;5115145;28;20027;-63
2022/08/02 09:27:12;;;;;;;1.95;0.90;;;21.20;76.10;;;;;;5114637;28;20053;-64
2022/08/02 09:29:38;;;;;;;1.92;0.98;;;21.30;75.90;;;;;;5112110;28;20077;-63
2022/08/02 09:32:04;;;;;;;0.55;0.55;;;21.40;76.00;;;;;;5102736;28;20425;-63
2022/08/02 09:34:50;;;;;;;0.65;0.65;;;21.50;76.20;;;;;;5094810;28;20467;-63
2022/08/02 09:37:23;;;;;;;2.38;1.20;;;21.50;76.00;;;;;;5102183;28;20035;-62
2022/08/02 09:39:48;;;;;;;1.60;0.90;;;21.50;75.60;;;;;;5113159;28;20049;-63
2022/08/02 09:42:14;;;;;;;1.65;1.00;;;21.50;75.40;;;;;;5113874;28;20031;-63
2022/08/02 09:44:51;;;;;;;6.80;1.20;;;21.60;75.50;;;;;;5109579;28;20067;-63
2022/08/02 09:47:17;;;;;;;6.55;1.85;;;21.60;75.00;;;;;;5110591;28;20031;-63
2022/08/02 09:49:46;;;;;;;3.03;0.60;;;21.70;74.80;;;;;;5111462;28;20117;-62
2022/08/02 09:52:21;;;;;;;2.63;0.68;;;21.70;74.70;;;;;;5111153;28;20130;-63
2022/08/02 09:54:50;;;;;;;3.33;0.75;;;21.80;74.60;;;;;;5112092;27;20035;-63
2022/08/02 09:57:26;;;;;;;2.70;0.98;;;21.80;75.00;;;;;;5113703;28;20178;-62
2022/08/02 09:59:54;;;;;;;4.10;1.20;;;21.80;74.70;;;;;;5113733;28;20027;-63
2022/08/02 10:02:22;;;;;;;8.75;1.25;;;21.90;74.70;;;;;;5110531;28;20546;-63
2022/08/02 10:04:48;;;;;;;1.42;1.20;;;22.00;74.90;;;;;;5114342;28;20466;-63
2022/08/02 10:07:15;;;;;;;2.33;1.13;;;21.90;74.90;;;;;;5113142;28;20102;-63
2022/08/02 10:09:45;;;;;;;0.90;0.90;;;22.10;75.00;;;;;;5106354;28;20031;-63
2022/08/02 10:12:14;;;;;;;2.35;1.08;;;22.20;75.20;;;;;;5104556;28;20527;-63
2022/08/02 10:14:40;;;;;;;16.33;1.50;;;22.20;75.30;;;;;;5107880;28;20031;-63
2022/08/02 10:17:06;;;;;;;2.90;1.48;;;22.20;75.40;;;;;;5113747;28;20027;-63
2022/08/02 10:19:34;;;;;;;1.75;1.05;;;22.20;75.50;;;;;;5113496;28;20360;-63
2022/08/02 10:22:05;;;;;;;3.83;1.40;;;22.30;75.90;;;;;;5101246;28;20032;-63
2022/08/02 10:24:35;;;;;;;2.50;1.70;;;22.40;75.90;;;;;;5115287;28;20027;-63
2022/08/02 10:27:02;;;;;;;2.78;1.42;;;22.40;76.00;;;;;;5111600;28;20031;-63
2022/08/02 10:29:37;;;;;;;4.63;1.33;;;22.50;76.40;;;;;;5098069;28;20084;-63
2022/08/02 10:32:25;;;;;;;3.30;1.30;;;22.60;76.30;;;;;;5106494;28;20502;-63
2022/08/02 10:35:02;;;;;;;7.38;1.60;;;22.70;76.30;;;;;;5111185;28;20526;-63
2022/08/02 10:37:32;;;;;;;2.17;0.93;;;22.80;76.40;;;;;;5112230;28;21318;-63
2022/08/02 10:39:58;;;;;;;4.03;1.40;;;22.90;76.50;;;;;;5109490;28;20027;-62
2022/08/02 10:42:47;;;;;;;10.95;1.67;;;22.90;76.40;;;;;;5109519;28;20553;-63
2022/08/02 10:45:15;;;;;;;1.70;1.10;;;23.00;76.60;;;;;;5110837;28;20080;-63
2022/08/02 10:47:57;;;;;;;4.00;1.42;;;23.00;76.90;;;;;;5110161;28;20049;-63
2022/08/02 10:50:44;;;;;;;4.55;2.00;;;23.10;77.00;;;;;;5109726;28;20085;-63
2022/08/02 10:53:26;;;;;;;2.55;1.60;;;23.10;77.10;;;;;;5110207;28;20096;-63
2022/08/02 10:55:54;;;;;;;3.72;0.90;;;23.20;77.00;;;;;;5109971;28;20463;-63
2022/08/02 10:58:26;;;;;;;3.88;1.50;;;23.30;77.20;;;;;;5111760;28;20027;-63
2022/08/02 11:00:53;;;;;;;2.67;1.05;;;23.30;77.70;;;;;;5108317;28;20440;-64
2022/08/02 11:03:27;;;;;;;3.42;1.30;;;23.40;77.90;;;;;;5109752;28;20050;-64
2022/08/02 11:06:05;;;;;;;3.17;1.60;;;23.40;77.90;;;;;;5108015;28;20035;-63
2022/08/02 11:08:34;;;;;;;7.05;1.52;;;23.40;77.90;;;;;;5107573;27;20158;-63
2022/08/02 11:11:14;;;;;;;10.70;1.58;;;23.50;78.30;;;;;;5108607;28;20047;-63
2022/08/02 11:14:06;;;;;;;3.50;1.80;;;23.50;78.50;;;;;;5110281;28;20023;-63
2022/08/02 11:16:53;;;;;;;2.35;1.38;;;23.60;78.40;;;;;;5107775;28;20028;-63
2022/08/02 11:19:19;;;;;;;1.13;1.02;;;23.60;78.30;;;;;;5108631;28;20482;-63
2022/08/02 11:21:59;;;;;;;0.98;0.73;;;23.70;78.60;;;;;;5110630;28;20070;-63
2022/08/02 11:24:27;;;;;;;3.08;1.27;;;23.80;78.80;;;;;;5108077;28;20486;-63
2022/08/02 11:26:53;;;;;;;2.00;1.23;;;23.80;78.60;;;;;;5108462;28;20074;-63
2022/08/02 11:29:30;;;;;;;3.67;1.48;;;23.90;78.80;;;;;;5106073;27;20055;-63
2022/08/02 11:31:56;;;;;;;2.80;1.08;;;23.90;78.80;;;;;;5107968;28;20047;-64
2022/08/02 11:34:24;;;;;;;1.58;0.90;;;24.00;78.30;;;;;;5107659;28;20028;-63
2022/08/02 11:36:51;;;;;;;2.97;1.35;;;24.00;77.60;;;;;;5106298;28;20031;-63
2022/08/02 11:39:20;;;;;;;2.50;1.02;;;24.10;78.10;;;;;;5106670;28;20031;-62
2022/08/02 11:41:53;;;;;;;2.90;1.42;;;24.10;76.90;;;;;;5108227;27;20039;-62
2022/08/02 11:44:19;;;;;;;1.73;1.08;;;24.20;76.90;;;;;;5107510;28;20118;-62
2022/08/02 11:46:59;;;;;;;1.25;0.98;;;24.20;77.20;;;;;;5109327;28;20023;-62
2022/08/02 11:49:26;;;;;;;2.45;1.38;;;24.30;77.60;;;;;;5110817;28;20028;-63
2022/08/02 11:52:05;;;;;;;2.63;1.27;;;24.40;77.50;;;;;;5110139;28;20058;-63
2022/08/02 11:54:35;;;;;;;1.30;1.10;;;24.40;77.30;;;;;;5109832;28;20015;-63
2022/08/02 11:57:12;;;;;;;3.45;1.35;;;24.50;77.70;;;;;;5106394;28;20028;-63
2022/08/02 11:59:39;;;;;;;4.10;1.13;;;24.50;77.80;;;;;;5110272;28;20032;-64
2022/08/02 12:02:09;;;;;;;4.75;1.80;;;24.60;77.40;;;;;;5111882;28;20027;-64
2022/08/02 12:04:36;;;;;;;2.58;1.67;;;24.60;77.20;;;;;;5110329;28;20027;-64
2022/08/02 12:07:03;;;;;;;2.13;1.13;;;24.70;78.00;;;;;;5109038;28;20103;-64
2022/08/02 12:09:31;;;;;;;3.20;1.40;;;24.80;78.10;;;;;;5109964;28;20040;-64
2022/08/02 12:12:00;;;;;;;2.75;1.40;;;24.80;77.90;;;;;;5110804;28;20474;-63
2022/08/02 12:14:28;;;;;;;1.85;1.27;;;24.90;78.30;;;;;;5107941;28;20451;-64
2022/08/02 12:19:41;;;;;;;1.27;1.17;;;25.10;77.50;;;;;;5108997;28;20020;-64
2022/08/02 12:22:17;;;;;;;4.88;1.27;;;25.10;78.30;;;;;;5109403;28;20496;-73
2022/08/02 12:24:52;;;;;;;3.58;1.70;;;25.20;77.90;;;;;;5109022;28;20058;-63
2022/08/02 12:27:40;;;;;;;2.10;1.25;;;25.20;77.50;;;;;;5108967;28;20463;-63
2022/08/02 12:30:15;;;;;;;2.22;0.88;;;25.30;77.70;;;;;;5089628;28;20124;-63
2022/08/02 12:32:41;;;;;;;3.55;1.42;;;25.30;77.30;;;;;;5106635;28;20043;-68
2022/08/02 12:35:08;;;;;;;4.07;1.55;;;25.40;76.90;;;;;;5108722;28;20034;-63
2022/08/02 12:37:36;;;;;;;4.20;1.48;;;25.40;77.70;;;;;;5099994;28;20027;-63
2022/08/02 12:40:28;;;;;;;1.08;0.98;;;25.40;77.00;;;;;;5099293;28;20031;-63
2022/08/02 12:43:03;;;;;;;5.67;1.93;;;25.60;77.00;;;;;;5103478;28;20023;-63
2022/08/02 12:45:32;;;;;;;11.05;2.30;;;25.60;76.30;;;;;;5109528;28;20032;-63
2022/08/02 12:47:59;;;;;;;2.55;1.60;;;25.60;76.30;;;;;;5109000;28;20375;-63
2022/08/02 12:50:29;;;;;;;5.72;1.63;;;25.60;76.40;;;;;;5106986;28;20387;-62
2022/08/02 12:53:04;;;;;;;2.03;1.00;;;25.70;76.60;;;;;;5107735;28;20115;-62
2022/08/02 12:55:30;;;;;;;3.72;1.55;;;25.70;77.20;;;;;;5105550;28;20036;-63
2022/08/02 12:58:01;;;;;;;8.77;1.67;;;25.70;77.00;;;;;;5106112;28;20497;-63